createdAt,value
2024-04-08T10:59:35.267Z,97.02
2024-04-08T11:02:38.936Z,95.02
2024-04-08T11:05:31.465Z,90.04
2024-04-08T11:08:28.947Z,89.12
2024-04-08T11:11:33.149Z,81.66
2024-04-08T11:14:27.430Z,76.65
2024-04-08T11:17:37.200Z,73.37
2024-04-08T11:20:34.619Z,79.25
2024-04-08T11:23:51.166Z,83.13
2024-04-08T11:26:59.196Z,77.85
2024-04-08T11:30:01.066Z,79.96
2024-04-08T11:32:56.303Z,71.92
2024-04-08T11:35:51.964Z,72.69
2024-04-08T11:38:52.662Z,81.33
2024-04-08T11:41:52.035Z,78.94
2024-04-08T11:45:09.590Z,67.14
2024-04-08T11:48:10.555Z,57.48
2024-04-08T11:51:05.803Z,56.54
2024-04-08T11:54:09.559Z,57.98
2024-04-08T11:57:06.855Z,60.79
2024-04-08T12:00:08.935Z,59.23
2024-04-08T12:03:06.306Z,55.59
2024-04-08T12:06:11.741Z,54.03
2024-04-08T12:09:09.493Z,50.03
2024-04-08T12:12:03.859Z,51.28
2024-04-08T12:14:58.862Z,53.42
2024-04-08T12:17:56.692Z,54.14
2024-04-08T12:20:53.671Z,55.97
2024-04-08T12:24:04.166Z,51.85
2024-04-08T12:26:58.391Z,51.60
2024-04-08T12:30:01.496Z,51.99
2024-04-08T12:33:04.779Z,50.77
2024-04-08T12:36:08.191Z,50.74
2024-04-08T12:39:04.695Z,53.53
2024-04-08T12:42:10.855Z,52.20
2024-04-08T12:45:14.944Z,47.60
2024-04-08T12:48:19.421Z,46.36
2024-04-08T12:51:19.097Z,44.90
2024-04-08T12:54:16.632Z,43.82
2024-04-08T12:57:15.046Z,42.62
2024-04-08T13:00:11.919Z,41.15
2024-04-08T13:03:11.774Z,40.87
2024-04-08T13:06:18.531Z,40.12
2024-04-08T13:09:16.805Z,37.38
2024-04-08T13:12:16.922Z,37.43
2024-04-08T13:15:19.969Z,38.19
2024-04-08T13:18:20.692Z,39.27
2024-04-08T13:21:21.099Z,39.50
2024-04-08T13:24:15.559Z,38.13
2024-04-08T13:27:12.676Z,38.74
2024-04-08T13:30:07.054Z,39.36
2024-04-08T13:33:04.555Z,38.20
2024-04-08T13:36:16.237Z,38.64
2024-04-08T13:39:12.249Z,38.20
2024-04-08T13:42:13.966Z,39.38
2024-04-08T13:45:12.255Z,39.33
2024-04-08T13:48:07.236Z,39.15
2024-04-08T13:51:07.396Z,38.28
2024-04-08T13:54:06.145Z,38.11
2024-04-08T13:57:13.471Z,38.04
2024-04-08T14:00:13.894Z,37.28
2024-04-08T14:03:16.772Z,36.94
2024-04-08T14:06:21.931Z,36.71
2024-04-08T14:09:19.483Z,37.12
2024-04-08T14:12:19.952Z,37.64
2024-04-08T14:15:21.991Z,35.80
2024-04-08T14:18:19.601Z,36.14
2024-04-08T14:21:18.429Z,36.94
2024-04-08T14:24:24.469Z,37.19
2024-04-08T14:27:21.894Z,37.06
2024-04-08T14:30:21.935Z,36.19
2024-04-08T14:33:28.592Z,36.68
2024-04-08T14:36:33.064Z,39.00
2024-04-08T14:39:36.625Z,38.82
2024-04-08T14:42:35.931Z,39.38
2024-04-08T14:45:34.018Z,40.50
2024-04-08T14:48:39.249Z,40.60
2024-04-08T14:51:41.393Z,38.14
2024-04-08T14:54:40.854Z,35.98
2024-04-08T14:58:04.235Z,34.86
2024-04-08T15:01:12.853Z,35.47
2024-04-08T15:04:13.064Z,35.67
2024-04-08T15:10:28.399Z,35.64
2024-04-08T15:13:33.438Z,33.73
2024-04-08T15:16:51.188Z,34.06
2024-04-08T15:19:51.283Z,36.23
2024-04-08T15:23:13.107Z,34.08
2024-04-08T15:26:28.718Z,33.55
2024-04-08T15:29:49.687Z,33.80
2024-04-08T15:33:11.491Z,32.83
2024-04-08T15:36:54.247Z,34.08
2024-04-08T15:40:34.059Z,33.58
2024-04-08T15:43:48.942Z,32.92
2024-04-08T15:47:09.354Z,33.12
2024-04-08T15:54:53.997Z,33.47
2024-04-08T15:57:57.602Z,35.18
2024-04-08T16:01:15.517Z,33.39
2024-04-08T16:04:17.516Z,34.36
2024-04-08T16:07:20.935Z,33.06
2024-04-08T16:10:23.027Z,33.70
2024-04-08T16:13:20.226Z,34.80
2024-04-08T16:16:20.576Z,35.04
2024-04-08T16:19:16.566Z,35.38
2024-04-08T16:22:24.214Z,35.17
2024-04-08T16:25:27.769Z,35.80
2024-04-08T16:28:54.106Z,35.11
2024-04-08T16:31:55.288Z,35.35
2024-04-08T16:34:54.065Z,36.26
2024-04-08T16:37:57.931Z,36.81
2024-04-08T16:41:04.151Z,36.74
2024-04-08T16:44:17.134Z,36.93
2024-04-08T16:47:14.805Z,37.05
2024-04-08T16:50:13.673Z,36.33
2024-04-08T16:53:15.494Z,36.66
2024-04-08T16:56:23.173Z,36.56
2024-04-08T16:59:29.623Z,36.57
2024-04-08T17:02:37.561Z,37.08
2024-04-08T17:05:37.765Z,36.82
2024-04-08T17:08:41.992Z,37.95
2024-04-08T17:11:39.424Z,38.28
2024-04-08T17:14:42.242Z,38.66
2024-04-08T17:17:39.312Z,38.70
2024-04-08T17:20:45.019Z,39.90
2024-04-08T17:23:44.936Z,40.49
2024-04-08T17:26:46.251Z,39.78
2024-04-08T17:29:56.162Z,40.40
2024-04-08T17:33:20.281Z,39.78
2024-04-08T17:36:46.674Z,40.88
2024-04-08T17:40:22.812Z,40.75
2024-04-08T17:43:21.911Z,41.16
2024-04-08T17:46:35.469Z,41.53
2024-04-08T17:49:41.164Z,41.74
2024-04-08T17:53:12.118Z,41.74
2024-04-08T17:56:25.439Z,42.70
2024-04-08T18:00:05.116Z,42.92
2024-04-08T18:03:19.031Z,44.70
2024-04-08T18:09:17.548Z,45.61
2024-04-08T18:12:36.851Z,45.72
2024-04-08T18:16:33.252Z,48.99
2024-04-08T18:19:36.384Z,49.63
2024-04-08T18:22:42.809Z,51.72
2024-04-08T18:26:02.905Z,61.94
2024-04-08T18:29:56.220Z,67.84
2024-04-08T18:46:57.997Z,84.20
2024-04-08T18:59:08.955Z,100.00
2024-04-08T19:07:44.710Z,100.00
2024-04-08T22:49:04.935Z,100.00
